Time;durP1;ratioP1;P1;durP2;ratioP2;P2;SDS_P1;SDS_P2;PMS_P1;PMS_P2;Temp;Humidity;BMP_temperature;BMP_pressure;BME280_temperature;BME280_humidity;BME280_pressure;Samples;Min_cycle;Max_cycle;Signal;HPM_P1;HPM_P2
2023/12/31 00:02:10;;;;;;;1.15;0.20;;;;;;;;;;5261266;28;20055;-77
2023/12/31 00:04:41;;;;;;;2.00;0.30;;;;;;;;;;5262057;28;20488;-77
2023/12/31 00:07:12;;;;;;;1.17;0.25;;;;;;;;;;5262681;28;20460;-78
2023/12/31 00:09:43;;;;;;;2.05;0.30;;;;;;;;;;5261616;28;20033;-78
2023/12/31 00:12:14;;;;;;;2.13;0.40;;;;;;;;;;5262195;28;20483;-78
2023/12/31 00:14:46;;;;;;;1.76;0.40;;;;;;;;;;5262288;28;20532;-78
2023/12/31 00:17:17;;;;;;;2.47;0.52;;;;;;;;;;5261030;28;20468;-78
2023/12/31 00:19:48;;;;;;;1.13;0.20;;;;;;;;;;5262077;28;20024;-78
2023/12/31 00:22:19;;;;;;;0.60;0.20;;;;;;;;;;5261883;28;20036;-78
2023/12/31 00:24:54;;;;;;;0.68;0.10;;;;;;;;;;5261159;28;20063;-78
2023/12/31 00:27:25;;;;;;;0.32;0.10;;;;;;;;;;5261467;28;20017;-79
2023/12/31 00:29:56;;;;;;;0.57;0.20;;;;;;;;;;5261072;28;20056;-78
2023/12/31 00:32:27;;;;;;;1.46;0.30;;;;;;;;;;5261514;28;20066;-79
2023/12/31 00:34:58;;;;;;;1.17;0.10;;;;;;;;;;5261792;28;20052;-78
2023/12/31 00:37:29;;;;;;;1.30;0.20;;;;;;;;;;5261161;28;20105;-78
2023/12/31 00:40:01;;;;;;;3.12;0.18;;;;;;;;;;5261670;28;20028;-78
2023/12/31 00:42:32;;;;;;;1.00;0.10;;;;;;;;;;5261576;28;20013;-78
2023/12/31 00:45:03;;;;;;;0.40;0.10;;;;;;;;;;5261026;28;20482;-78
2023/12/31 00:47:34;;;;;;;0.93;0.20;;;;;;;;;;5261208;28;20017;-78
2023/12/31 00:50:06;;;;;;;0.95;0.10;;;;;;;;;;5261312;28;20068;-78
2023/12/31 00:52:37;;;;;;;0.95;0.10;;;;;;;;;;5260559;28;20017;-78
2023/12/31 00:55:08;;;;;;;0.75;0.15;;;;;;;;;;5261648;28;20032;-78
2023/12/31 00:57:39;;;;;;;1.60;0.20;;;;;;;;;;5261463;28;20029;-78
2023/12/31 01:00:11;;;;;;;0.82;0.10;;;;;;;;;;5260742;28;20036;-78
2023/12/31 01:02:42;;;;;;;1.00;0.30;;;;;;;;;;5261369;28;20027;-78
2023/12/31 01:05:13;;;;;;;0.52;0.10;;;;;;;;;;5260412;28;20067;-78
2023/12/31 01:07:45;;;;;;;0.60;0.10;;;;;;;;;;5261309;28;20233;-78
2023/12/31 01:10:16;;;;;;;0.98;0.10;;;;;;;;;;5261211;28;20041;-78
2023/12/31 01:12:47;;;;;;;0.82;0.20;;;;;;;;;;5260422;28;20107;-78
2023/12/31 01:15:18;;;;;;;0.68;0.10;;;;;;;;;;5261178;28;20466;-78
2023/12/31 01:17:49;;;;;;;0.57;0.10;;;;;;;;;;5260959;28;20053;-78
2023/12/31 01:20:20;;;;;;;0.88;0.10;;;;;;;;;;5260398;28;20024;-78
2023/12/31 01:22:52;;;;;;;0.85;0.10;;;;;;;;;;5261240;28;20017;-78
2023/12/31 01:25:23;;;;;;;1.38;0.20;;;;;;;;;;5260678;28;20072;-78
2023/12/31 01:27:55;;;;;;;0.50;0.10;;;;;;;;;;5260278;28;20486;-78
2023/12/31 01:30:26;;;;;;;0.75;0.10;;;;;;;;;;5260206;28;20450;-78
2023/12/31 01:32:57;;;;;;;0.85;0.15;;;;;;;;;;5259908;28;20017;-78
2023/12/31 01:35:29;;;;;;;0.90;0.20;;;;;;;;;;5260656;28;20027;-77
2023/12/31 01:38:00;;;;;;;0.47;0.17;;;;;;;;;;5260804;28;20464;-78
2023/12/31 01:40:32;;;;;;;0.73;0.20;;;;;;;;;;5260012;28;20017;-78
2023/12/31 01:43:03;;;;;;;1.00;0.20;;;;;;;;;;5260953;28;20460;-78
2023/12/31 01:45:34;;;;;;;0.73;0.10;;;;;;;;;;5260965;28;20021;-78
2023/12/31 01:48:05;;;;;;;0.46;0.10;;;;;;;;;;5259886;28;20033;-79
2023/12/31 01:50:37;;;;;;;0.82;0.30;;;;;;;;;;5260404;28;20108;-78
2023/12/31 01:53:08;;;;;;;0.70;0.20;;;;;;;;;;5260505;28;20049;-78
2023/12/31 01:55:40;;;;;;;0.32;0.10;;;;;;;;;;5260185;28;20504;-78
2023/12/31 01:58:11;;;;;;;0.65;0.20;;;;;;;;;;5260764;28;20028;-78
2023/12/31 02:00:43;;;;;;;0.50;0.10;;;;;;;;;;5263659;28;20027;-78
2023/12/31 02:03:15;;;;;;;1.17;0.20;;;;;;;;;;5263987;28;20013;-78
2023/12/31 02:05:46;;;;;;;0.85;0.20;;;;;;;;;;5264701;28;20040;-78
2023/12/31 02:08:17;;;;;;;1.42;0.10;;;;;;;;;;5264163;28;20578;-78
2023/12/31 02:10:50;;;;;;;1.80;0.20;;;;;;;;;;5264633;28;20113;-78
2023/12/31 02:13:21;;;;;;;1.63;0.28;;;;;;;;;;5264015;28;20013;-78
2023/12/31 02:15:53;;;;;;;0.50;0.10;;;;;;;;;;5263794;28;20427;-78
2023/12/31 02:18:24;;;;;;;1.67;0.13;;;;;;;;;;5264183;28;20020;-78
2023/12/31 02:20:55;;;;;;;0.57;0.20;;;;;;;;;;5264793;28;20051;-78
2023/12/31 02:23:27;;;;;;;1.70;0.17;;;;;;;;;;5263333;28;20033;-78
2023/12/31 02:26:08;;;;;;;0.30;0.20;;;;;;;;;;5264423;28;20040;-78
2023/12/31 02:28:39;;;;;;;1.27;0.30;;;;;;;;;;5264238;28;20021;-78
2023/12/31 02:31:10;;;;;;;0.85;0.10;;;;;;;;;;5263171;28;20021;-78
2023/12/31 02:33:41;;;;;;;0.68;0.20;;;;;;;;;;5263962;28;20429;-78
2023/12/31 02:36:13;;;;;;;1.27;0.28;;;;;;;;;;5263956;28;20427;-78
2023/12/31 02:38:44;;;;;;;0.63;0.20;;;;;;;;;;5263659;28;20059;-78
2023/12/31 02:41:15;;;;;;;0.82;0.22;;;;;;;;;;5263869;28;20033;-79
2023/12/31 02:43:46;;;;;;;0.50;0.20;;;;;;;;;;5263426;28;20369;-80
2023/12/31 02:46:18;;;;;;;0.73;0.20;;;;;;;;;;5263991;28;20044;-78
2023/12/31 02:48:49;;;;;;;1.45;0.20;;;;;;;;;;5263735;28;20021;-78
2023/12/31 02:51:20;;;;;;;0.73;0.20;;;;;;;;;;5262881;28;20082;-78
2023/12/31 02:53:51;;;;;;;1.08;0.20;;;;;;;;;;5264133;28;20092;-78
2023/12/31 02:56:23;;;;;;;0.65;0.20;;;;;;;;;;5263453;28;20025;-78
2023/12/31 02:58:55;;;;;;;0.70;0.20;;;;;;;;;;5263628;28;20410;-78
2023/12/31 03:01:26;;;;;;;2.25;0.32;;;;;;;;;;5263668;28;20025;-79
2023/12/31 03:03:57;;;;;;;0.82;0.20;;;;;;;;;;5263539;28;20024;-79
2023/12/31 03:06:29;;;;;;;2.88;0.30;;;;;;;;;;5262723;28;20021;-79
2023/12/31 03:09:01;;;;;;;0.63;0.20;;;;;;;;;;5263411;28;20017;-80
2023/12/31 03:11:34;;;;;;;0.70;0.20;;;;;;;;;;5262241;28;20029;-79
2023/12/31 03:14:05;;;;;;;1.10;0.30;;;;;;;;;;5263466;28;20013;-79
2023/12/31 03:16:36;;;;;;;0.50;0.20;;;;;;;;;;5263341;28;20479;-78
2023/12/31 03:19:08;;;;;;;0.70;0.20;;;;;;;;;;5262462;28;20387;-79
2023/12/31 03:21:39;;;;;;;0.55;0.15;;;;;;;;;;5262917;28;20029;-79
2023/12/31 03:24:10;;;;;;;0.73;0.30;;;;;;;;;;5263229;28;20491;-78
2023/12/31 03:26:41;;;;;;;1.00;0.22;;;;;;;;;;5262444;28;20028;-76
2023/12/31 03:29:13;;;;;;;0.98;0.20;;;;;;;;;;5263214;28;20072;-79
2023/12/31 03:31:44;;;;;;;1.15;0.20;;;;;;;;;;5263265;28;20384;-78
2023/12/31 03:34:15;;;;;;;1.15;0.20;;;;;;;;;;5262282;28;20549;-78
2023/12/31 03:36:46;;;;;;;0.57;0.20;;;;;;;;;;5263021;28;20017;-78
2023/12/31 03:39:18;;;;;;;0.88;0.20;;;;;;;;;;5262744;28;20024;-79
2023/12/31 03:41:49;;;;;;;0.80;0.30;;;;;;;;;;5262038;28;20461;-78
2023/12/31 03:44:20;;;;;;;1.08;0.20;;;;;;;;;;5262897;28;20454;-79
2023/12/31 03:46:51;;;;;;;0.57;0.20;;;;;;;;;;5262227;28;20035;-78
2023/12/31 03:49:22;;;;;;;0.93;0.20;;;;;;;;;;5262124;28;20025;-78
2023/12/31 03:51:53;;;;;;;0.50;0.20;;;;;;;;;;5262786;28;20027;-79
2023/12/31 03:54:25;;;;;;;1.58;0.20;;;;;;;;;;5261403;28;20028;-79
2023/12/31 03:56:56;;;;;;;0.85;0.10;;;;;;;;;;5262707;28;20036;-78
2023/12/31 03:59:27;;;;;;;0.75;0.20;;;;;;;;;;5262234;28;20013;-78
2023/12/31 04:01:59;;;;;;;1.17;0.25;;;;;;;;;;5261739;28;20017;-79
2023/12/31 04:04:30;;;;;;;0.77;0.20;;;;;;;;;;5262727;28;20021;-78
2023/12/31 04:07:01;;;;;;;1.25;0.20;;;;;;;;;;5262478;28;20020;-79
2023/12/31 04:09:32;;;;;;;0.77;0.20;;;;;;;;;;5261676;28;20021;-78
2023/12/31 04:12:04;;;;;;;0.88;0.40;;;;;;;;;;5262461;28;20147;-78
2023/12/31 04:14:36;;;;;;;0.45;0.10;;;;;;;;;;5262227;28;20021;-78
2023/12/31 04:17:07;;;;;;;1.05;0.13;;;;;;;;;;5261513;28;20490;-78
2023/12/31 04:19:38;;;;;;;1.27;0.20;;;;;;;;;;5262222;28;20110;-78
2023/12/31 04:22:09;;;;;;;0.68;0.22;;;;;;;;;;5260487;28;20017;-78
2023/12/31 04:24:40;;;;;;;0.82;0.20;;;;;;;;;;5262153;28;20529;-78
2023/12/31 04:27:12;;;;;;;0.55;0.20;;;;;;;;;;5261986;28;20102;-78
2023/12/31 04:29:43;;;;;;;0.60;0.30;;;;;;;;;;5261032;28;20516;-78
2023/12/31 04:32:14;;;;;;;0.50;0.20;;;;;;;;;;5261798;28;20365;-78
2023/12/31 04:34:45;;;;;;;0.98;0.20;;;;;;;;;;5261971;28;20052;-78
2023/12/31 04:37:16;;;;;;;0.70;0.30;;;;;;;;;;5261144;28;20096;-78
2023/12/31 04:39:48;;;;;;;0.65;0.20;;;;;;;;;;5262173;28;20118;-78
2023/12/31 04:42:19;;;;;;;0.73;0.20;;;;;;;;;;5261711;28;20100;-79
2023/12/31 04:44:50;;;;;;;0.93;0.30;;;;;;;;;;5260966;28;20036;-79
2023/12/31 04:47:22;;;;;;;1.17;0.20;;;;;;;;;;5261407;28;20464;-79
2023/12/31 04:49:53;;;;;;;0.63;0.30;;;;;;;;;;5260926;28;20025;-79
2023/12/31 04:52:24;;;;;;;3.10;0.30;;;;;;;;;;5261412;28;20411;-78
2023/12/31 04:54:55;;;;;;;1.60;0.20;;;;;;;;;;5261564;28;20035;-79
2023/12/31 04:57:26;;;;;;;0.52;0.20;;;;;;;;;;5260137;28;20502;-78
2023/12/31 04:59:57;;;;;;;2.05;0.28;;;;;;;;;;5261266;28;20483;-77
2023/12/31 05:02:29;;;;;;;0.88;0.20;;;;;;;;;;5260988;28;20067;-77
2023/12/31 05:05:02;;;;;;;0.80;0.22;;;;;;;;;;5260664;28;20017;-79
2023/12/31 05:07:33;;;;;;;0.88;0.20;;;;;;;;;;5261089;28;20024;-78
2023/12/31 05:10:05;;;;;;;0.73;0.30;;;;;;;;;;5260749;28;20479;-79
2023/12/31 05:12:36;;;;;;;1.00;0.30;;;;;;;;;;5260396;28;20419;-79
2023/12/31 05:15:07;;;;;;;0.77;0.28;;;;;;;;;;5260728;28;20125;-79
2023/12/31 05:17:38;;;;;;;0.60;0.25;;;;;;;;;;5260850;28;20033;-79
2023/12/31 05:20:09;;;;;;;1.02;0.20;;;;;;;;;;5260158;28;20095;-78
2023/12/31 05:22:41;;;;;;;0.60;0.28;;;;;;;;;;5261115;28;20021;-79
2023/12/31 05:25:12;;;;;;;0.60;0.30;;;;;;;;;;5259937;28;20024;-78
2023/12/31 05:27:43;;;;;;;0.90;0.20;;;;;;;;;;5261033;28;20031;-77
2023/12/31 05:30:14;;;;;;;0.60;0.20;;;;;;;;;;5260772;28;20162;-77
2023/12/31 05:32:45;;;;;;;1.67;0.30;;;;;;;;;;5260207;28;20021;-77
2023/12/31 05:35:17;;;;;;;0.90;0.30;;;;;;;;;;5260978;28;20024;-78
2023/12/31 05:37:48;;;;;;;1.23;0.30;;;;;;;;;;5260567;28;20017;-77
2023/12/31 05:40:19;;;;;;;0.93;0.20;;;;;;;;;;5260094;28;20086;-77
2023/12/31 05:42:50;;;;;;;0.88;0.30;;;;;;;;;;5260720;28;20024;-77
2023/12/31 05:45:22;;;;;;;0.93;0.35;;;;;;;;;;5260103;28;20032;-77
2023/12/31 05:47:53;;;;;;;1.00;0.40;;;;;;;;;;5259988;28;20032;-77
2023/12/31 05:50:24;;;;;;;1.00;0.30;;;;;;;;;;5260030;28;20078;-77
2023/12/31 05:52:55;;;;;;;1.23;0.28;;;;;;;;;;5260765;28;20028;-78
2023/12/31 05:55:26;;;;;;;0.90;0.30;;;;;;;;;;5259295;28;20025;-77
2023/12/31 05:57:58;;;;;;;1.00;0.30;;;;;;;;;;5260629;28;20361;-77
2023/12/31 06:00:29;;;;;;;0.73;0.20;;;;;;;;;;5259759;28;20021;-77
2023/12/31 06:03:00;;;;;;;0.57;0.30;;;;;;;;;;5260557;28;20491;-78
2023/12/31 06:05:32;;;;;;;0.98;0.30;;;;;;;;;;5260652;28;20426;-77
2023/12/31 06:08:03;;;;;;;0.70;0.30;;;;;;;;;;5259763;28;20369;-77
2023/12/31 06:10:34;;;;;;;1.52;0.30;;;;;;;;;;5260683;28;20086;-78
2023/12/31 06:13:05;;;;;;;2.25;0.40;;;;;;;;;;5260516;28;20013;-78
2023/12/31 06:15:37;;;;;;;1.27;0.40;;;;;;;;;;5259662;28;20048;-77
2023/12/31 06:18:09;;;;;;;0.65;0.30;;;;;;;;;;5260632;28;20483;-77
2023/12/31 06:20:40;;;;;;;0.90;0.30;;;;;;;;;;5260527;28;20027;-77
2023/12/31 06:23:11;;;;;;;0.80;0.30;;;;;;;;;;5259613;28;20017;-77
2023/12/31 06:25:43;;;;;;;1.20;0.30;;;;;;;;;;5260173;28;20035;-77
2023/12/31 06:28:14;;;;;;;0.50;0.30;;;;;;;;;;5260437;28;20017;-77
2023/12/31 06:30:45;;;;;;;0.57;0.30;;;;;;;;;;5259404;28;20059;-77
2023/12/31 06:33:16;;;;;;;1.04;0.30;;;;;;;;;;5260277;28;20025;-77
2023/12/31 06:35:47;;;;;;;1.20;0.30;;;;;;;;;;5259296;28;20506;-78
2023/12/31 06:38:18;;;;;;;1.55;0.60;;;;;;;;;;5259906;28;20518;-77
2023/12/31 06:40:50;;;;;;;0.88;0.30;;;;;;;;;;5259838;28;20533;-77
2023/12/31 06:43:21;;;;;;;1.15;0.35;;;;;;;;;;5259048;28;20471;-78
2023/12/31 06:45:52;;;;;;;1.20;0.38;;;;;;;;;;5261741;28;20028;-77
2023/12/31 06:48:23;;;;;;;0.60;0.30;;;;;;;;;;5263800;28;20021;-78
2023/12/31 06:50:54;;;;;;;0.63;0.30;;;;;;;;;;5263353;28;20032;-77
2023/12/31 06:53:26;;;;;;;1.52;0.40;;;;;;;;;;5263996;28;20079;-77
2023/12/31 06:55:57;;;;;;;0.90;0.40;;;;;;;;;;5263735;28;20017;-77
2023/12/31 06:58:28;;;;;;;0.70;0.30;;;;;;;;;;5262913;28;20404;-78
2023/12/31 07:00:59;;;;;;;0.80;0.30;;;;;;;;;;5263591;28;20048;-77
2023/12/31 07:03:31;;;;;;;0.93;0.40;;;;;;;;;;5262872;28;20143;-79
2023/12/31 07:06:02;;;;;;;1.20;0.30;;;;;;;;;;5263505;28;20036;-78
2023/12/31 07:08:33;;;;;;;0.77;0.30;;;;;;;;;;5263109;28;20063;-78
2023/12/31 07:11:04;;;;;;;0.60;0.30;;;;;;;;;;5262627;28;20438;-78
2023/12/31 07:13:36;;;;;;;0.60;0.28;;;;;;;;;;5263247;28;20135;-77
2023/12/31 07:16:07;;;;;;;1.55;0.50;;;;;;;;;;5263288;28;20056;-77
2023/12/31 07:18:39;;;;;;;1.27;0.30;;;;;;;;;;5262494;28;20468;-77
2023/12/31 07:21:10;;;;;;;0.85;0.28;;;;;;;;;;5263220;28;20028;-77
2023/12/31 07:23:41;;;;;;;0.80;0.40;;;;;;;;;;5263223;28;20521;-78
2023/12/31 07:26:22;;;;;;;0.90;0.32;;;;;;;;;;5262374;28;20021;-78
2023/12/31 07:28:54;;;;;;;0.63;0.38;;;;;;;;;;5263356;28;20132;-77
2023/12/31 07:31:25;;;;;;;0.90;0.40;;;;;;;;;;5262895;28;20017;-78
2023/12/31 07:33:57;;;;;;;0.90;0.30;;;;;;;;;;5262236;28;20025;-78
2023/12/31 07:36:28;;;;;;;1.95;0.40;;;;;;;;;;5262679;28;20134;-78
2023/12/31 07:38:59;;;;;;;1.77;0.50;;;;;;;;;;5262119;28;20025;-78
2023/12/31 07:41:30;;;;;;;0.98;0.40;;;;;;;;;;5263016;28;20473;-78
2023/12/31 07:44:01;;;;;;;1.23;0.40;;;;;;;;;;5265013;28;20017;-78
2023/12/31 07:46:33;;;;;;;1.00;0.40;;;;;;;;;;5262520;28;20025;-78
2023/12/31 07:49:04;;;;;;;1.00;0.40;;;;;;;;;;5262896;28;20025;-78
2023/12/31 07:51:35;;;;;;;1.52;0.43;;;;;;;;;;5262519;28;20021;-78
2023/12/31 07:54:06;;;;;;;0.85;0.40;;;;;;;;;;5261782;28;20329;-78
2023/12/31 07:56:38;;;;;;;0.57;0.25;;;;;;;;;;5261806;28;20013;-78
2023/12/31 07:59:09;;;;;;;1.00;0.40;;;;;;;;;;5262248;28;20017;-78
2023/12/31 08:01:40;;;;;;;0.90;0.40;;;;;;;;;;5261713;28;20025;-78
2023/12/31 08:04:12;;;;;;;1.23;0.30;;;;;;;;;;5262677;28;20107;-78
2023/12/31 08:06:43;;;;;;;1.33;0.60;;;;;;;;;;5262454;28;20013;-78
2023/12/31 08:09:16;;;;;;;1.55;0.40;;;;;;;;;;5261672;28;20028;-78
2023/12/31 08:11:47;;;;;;;1.00;0.35;;;;;;;;;;5262369;28;20468;-78
2023/12/31 08:14:18;;;;;;;1.58;0.40;;;;;;;;;;5261516;28;20096;-78
2023/12/31 08:16:50;;;;;;;2.03;0.57;;;;;;;;;;5262364;28;20091;-78
2023/12/31 08:19:21;;;;;;;0.93;0.30;;;;;;;;;;5262030;28;20033;-78
2023/12/31 08:21:52;;;;;;;0.73;0.30;;;;;;;;;;5261730;28;20017;-78
2023/12/31 08:24:23;;;;;;;1.30;0.40;;;;;;;;;;5262066;28;20086;-77
2023/12/31 08:26:54;;;;;;;0.70;0.30;;;;;;;;;;5262035;28;20025;-77
2023/12/31 08:29:25;;;;;;;0.70;0.30;;;;;;;;;;5260669;28;20097;-77
2023/12/31 08:31:57;;;;;;;0.90;0.38;;;;;;;;;;5261830;28;20017;-78
2023/12/31 08:34:29;;;;;;;1.52;0.30;;;;;;;;;;5261467;28;20017;-78
2023/12/31 08:37:00;;;;;;;0.60;0.30;;;;;;;;;;5261064;28;20429;-77
2023/12/31 08:39:32;;;;;;;0.70;0.30;;;;;;;;;;5261911;28;20021;-78
2023/12/31 08:42:03;;;;;;;0.93;0.30;;;;;;;;;;5261126;28;20024;-78
2023/12/31 08:44:35;;;;;;;0.60;0.30;;;;;;;;;;5261921;28;20100;-78
2023/12/31 08:47:06;;;;;;;0.90;0.30;;;;;;;;;;5260619;28;20028;-78
2023/12/31 08:49:38;;;;;;;1.00;0.30;;;;;;;;;;5259775;28;20124;-80
2023/12/31 08:52:09;;;;;;;0.80;0.40;;;;;;;;;;5261771;28;20013;-80
2023/12/31 08:54:41;;;;;;;1.35;0.40;;;;;;;;;;5261312;28;20056;-79
2023/12/31 08:57:12;;;;;;;1.10;0.40;;;;;;;;;;5260867;28;20009;-79
2023/12/31 08:59:44;;;;;;;0.80;0.40;;;;;;;;;;5260531;28;20070;-79
2023/12/31 09:02:15;;;;;;;1.52;0.30;;;;;;;;;;5261464;28;20017;-79
2023/12/31 09:04:46;;;;;;;1.33;0.40;;;;;;;;;;5261940;28;20395;-79
2023/12/31 09:07:17;;;;;;;1.27;0.43;;;;;;;;;;5263049;28;20118;-80
2023/12/31 09:09:48;;;;;;;1.25;0.38;;;;;;;;;;5261148;28;20025;-79
2023/12/31 09:12:20;;;;;;;0.80;0.40;;;;;;;;;;5261928;28;20024;-80
2023/12/31 09:14:51;;;;;;;1.48;0.50;;;;;;;;;;5261606;28;20017;-79
2023/12/31 09:17:22;;;;;;;0.80;0.30;;;;;;;;;;5261155;28;20036;-80
2023/12/31 09:19:54;;;;;;;0.90;0.38;;;;;;;;;;5262612;28;20052;-79
2023/12/31 09:22:26;;;;;;;0.73;0.30;;;;;;;;;;5261207;28;20109;-79
2023/12/31 09:24:57;;;;;;;0.70;0.20;;;;;;;;;;5260571;28;20040;-79
2023/12/31 09:27:28;;;;;;;0.50;0.10;;;;;;;;;;5260854;28;20052;-80
2023/12/31 09:30:00;;;;;;;0.60;0.20;;;;;;;;;;5261054;28;20053;-80
2023/12/31 09:32:31;;;;;;;0.80;0.20;;;;;;;;;;5260432;28;20028;-79
2023/12/31 09:35:02;;;;;;;1.35;0.20;;;;;;;;;;5263305;28;20144;-79
2023/12/31 09:37:34;;;;;;;0.50;0.13;;;;;;;;;;5261097;28;20401;-81
2023/12/31 09:40:05;;;;;;;0.52;0.13;;;;;;;;;;5260279;28;20029;-78
2023/12/31 09:42:47;;;;;;;0.28;0.10;;;;;;;;;;5260801;28;20104;-79
2023/12/31 09:45:23;;;;;;;1.30;0.10;;;;;;;;;;5259797;28;20108;-81
2023/12/31 09:47:57;;;;;;;0.52;0.10;;;;;;;;;;5260973;28;20483;-80
2023/12/31 09:50:30;;;;;;;0.57;0.10;;;;;;;;;;5256188;28;20430;-79
2023/12/31 09:53:02;;;;;;;1.08;0.20;;;;;;;;;;5257826;28;20321;-78
2023/12/31 09:55:34;;;;;;;1.20;0.10;;;;;;;;;;5260571;28;20017;-79
2023/12/31 09:58:06;;;;;;;1.25;0.20;;;;;;;;;;5260109;28;20021;-79
2023/12/31 10:00:37;;;;;;;0.70;0.10;;;;;;;;;;5259423;28;20025;-78
2023/12/31 10:03:09;;;;;;;0.82;0.13;;;;;;;;;;5260332;28;20092;-77
2023/12/31 10:05:42;;;;;;;1.10;0.10;;;;;;;;;;5259772;28;20115;-79
2023/12/31 10:08:13;;;;;;;1.25;0.10;;;;;;;;;;5258385;28;20396;-77
2023/12/31 10:10:45;;;;;;;2.10;0.17;;;;;;;;;;5259874;28;20044;-78
2023/12/31 10:13:16;;;;;;;0.75;0.10;;;;;;;;;;5260450;28;20111;-79
2023/12/31 10:15:47;;;;;;;0.60;0.35;;;;;;;;;;5259817;28;20025;-80
2023/12/31 10:18:19;;;;;;;0.77;0.10;;;;;;;;;;5260316;28;20021;-79
2023/12/31 10:20:50;;;;;;;0.93;0.10;;;;;;;;;;5260794;28;20045;-79
2023/12/31 10:23:21;;;;;;;0.90;0.10;;;;;;;;;;5263565;28;20087;-81
2023/12/31 10:25:52;;;;;;;0.55;0.10;;;;;;;;;;5264501;28;20025;-78
2023/12/31 10:28:23;;;;;;;1.10;0.10;;;;;;;;;;5262752;28;20032;-78
2023/12/31 10:30:55;;;;;;;0.60;0.17;;;;;;;;;;5264206;28;20131;-78
2023/12/31 10:33:29;;;;;;;1.17;0.10;;;;;;;;;;5264025;28;20475;-78
2023/12/31 10:36:01;;;;;;;0.73;0.10;;;;;;;;;;5263203;28;20372;-79
2023/12/31 10:38:45;;;;;;;1.02;0.15;;;;;;;;;;5264132;28;20033;-79
2023/12/31 10:41:21;;;;;;;1.55;0.10;;;;;;;;;;5264202;28;20112;-78
2023/12/31 10:43:54;;;;;;;0.90;0.13;;;;;;;;;;5263360;28;20024;-79
2023/12/31 10:46:27;;;;;;;1.65;0.20;;;;;;;;;;5263461;28;20013;-79
2023/12/31 10:49:02;;;;;;;1.75;0.10;;;;;;;;;;5263191;28;20017;-78
2023/12/31 10:51:35;;;;;;;1.38;0.10;;;;;;;;;;5264180;28;20036;-76
2023/12/31 10:54:08;;;;;;;2.15;0.10;;;;;;;;;;5263695;28;20028;-79
2023/12/31 10:56:39;;;;;;;2.38;0.32;;;;;;;;;;5263162;28;20066;-78
2023/12/31 10:59:12;;;;;;;1.65;0.10;;;;;;;;;;5263969;28;20029;-78
2023/12/31 11:01:43;;;;;;;1.25;0.10;;;;;;;;;;5264038;28;20092;-78
2023/12/31 11:04:16;;;;;;;1.85;0.20;;;;;;;;;;5263401;28;20136;-79
2023/12/31 11:06:49;;;;;;;2.10;0.20;;;;;;;;;;5263856;28;20020;-79
2023/12/31 11:09:20;;;;;;;1.33;0.30;;;;;;;;;;5263637;28;20021;-79
2023/12/31 11:11:52;;;;;;;0.65;0.10;;;;;;;;;;5262913;28;20032;-79
2023/12/31 11:14:29;;;;;;;0.85;0.10;;;;;;;;;;5263005;28;20024;-79
2023/12/31 11:17:10;;;;;;;1.33;0.10;;;;;;;;;;5262745;28;20176;-75
2023/12/31 11:19:58;;;;;;;1.20;0.10;;;;;;;;;;5262941;28;20032;-75
2023/12/31 11:22:38;;;;;;;1.03;0.10;;;;;;;;;;5263527;28;20021;-75
2023/12/31 11:25:10;;;;;;;0.57;0.10;;;;;;;;;;5262666;28;20271;-73
2023/12/31 11:27:41;;;;;;;1.35;0.10;;;;;;;;;;5264672;28;20036;-78
2023/12/31 11:30:12;;;;;;;1.67;0.13;;;;;;;;;;5262797;28;20544;-78
2023/12/31 11:32:43;;;;;;;1.20;0.10;;;;;;;;;;5262484;28;20105;-78
2023/12/31 11:35:35;;;;;;;0.80;0.10;;;;;;;;;;5263091;28;20013;-79
2023/12/31 11:38:06;;;;;;;1.08;0.10;;;;;;;;;;5261951;28;20029;-79
2023/12/31 11:40:39;;;;;;;1.50;0.20;;;;;;;;;;5261850;28;20020;-78
2023/12/31 11:43:12;;;;;;;1.17;0.13;;;;;;;;;;5261338;28;20017;-79
2023/12/31 11:45:47;;;;;;;1.75;0.10;;;;;;;;;;5260399;28;20341;-78
2023/12/31 11:48:19;;;;;;;0.80;0.10;;;;;;;;;;5261367;28;20017;-78
2023/12/31 11:50:54;;;;;;;1.10;0.15;;;;;;;;;;5260687;28;20037;-80
2023/12/31 11:53:26;;;;;;;0.73;0.10;;;;;;;;;;5259827;28;20342;-78
2023/12/31 11:55:58;;;;;;;1.95;0.10;;;;;;;;;;5262070;28;20040;-78
2023/12/31 11:58:29;;;;;;;1.35;0.20;;;;;;;;;;5262669;28;20456;-78
2023/12/31 12:01:01;;;;;;;1.60;0.32;;;;;;;;;;5261907;28;20409;-77
2023/12/31 12:03:32;;;;;;;1.73;0.20;;;;;;;;;;5262204;28;20035;-78
2023/12/31 12:06:03;;;;;;;2.75;0.30;;;;;;;;;;5261616;28;20017;-78
2023/12/31 12:08:34;;;;;;;1.15;0.10;;;;;;;;;;5262483;28;20472;-78
2023/12/31 12:11:05;;;;;;;0.70;0.13;;;;;;;;;;5262380;28;20056;-78
2023/12/31 12:13:37;;;;;;;1.58;0.20;;;;;;;;;;5261719;28;20025;-79
2023/12/31 12:16:08;;;;;;;0.82;0.10;;;;;;;;;;5262453;28;20021;-78
2023/12/31 12:18:39;;;;;;;0.98;0.10;;;;;;;;;;5262187;28;20108;-78
2023/12/31 12:21:10;;;;;;;2.30;0.20;;;;;;;;;;5261606;28;20099;-79
2023/12/31 12:23:41;;;;;;;1.10;0.10;;;;;;;;;;5262195;28;20036;-78
2023/12/31 12:26:15;;;;;;;1.08;0.20;;;;;;;;;;5261951;28;20017;-79
2023/12/31 12:28:47;;;;;;;0.77;0.15;;;;;;;;;;5261075;28;20107;-78
2023/12/31 12:31:18;;;;;;;0.77;0.20;;;;;;;;;;5262056;28;20029;-79
2023/12/31 12:33:53;;;;;;;1.58;0.20;;;;;;;;;;5261908;28;20372;-79
2023/12/31 12:36:24;;;;;;;1.33;0.20;;;;;;;;;;5260867;28;20100;-79
2023/12/31 12:39:01;;;;;;;2.35;0.20;;;;;;;;;;5262126;28;20103;-79
2023/12/31 12:41:32;;;;;;;2.65;0.20;;;;;;;;;;5260968;28;20020;-79
2023/12/31 12:44:06;;;;;;;2.25;0.60;;;;;;;;;;5261111;28;20480;-79
2023/12/31 12:46:39;;;;;;;2.13;0.20;;;;;;;;;;5261766;28;20028;-78
2023/12/31 12:49:11;;;;;;;3.80;0.20;;;;;;;;;;5260632;28;20029;-79
2023/12/31 12:51:43;;;;;;;3.80;0.75;;;;;;;;;;5261625;28;20433;-79
2023/12/31 12:54:14;;;;;;;2.67;0.40;;;;;;;;;;5261610;28;20057;-78
2023/12/31 12:56:46;;;;;;;4.05;0.30;;;;;;;;;;5261056;28;20063;-79
2023/12/31 12:59:17;;;;;;;5.78;0.46;;;;;;;;;;5261624;28;20029;-79
2023/12/31 13:01:48;;;;;;;2.90;0.30;;;;;;;;;;5261412;28;20013;-79
2023/12/31 13:04:20;;;;;;;2.85;0.30;;;;;;;;;;5260780;28;20496;-80
2023/12/31 13:06:57;;;;;;;5.65;0.35;;;;;;;;;;5261924;28;20013;-79
2023/12/31 13:09:28;;;;;;;3.03;0.40;;;;;;;;;;5260453;28;20353;-80
2023/12/31 13:11:59;;;;;;;2.42;0.50;;;;;;;;;;5261157;28;20028;-80
2023/12/31 13:14:31;;;;;;;2.60;0.30;;;;;;;;;;5261286;28;20019;-80
2023/12/31 13:17:03;;;;;;;2.92;0.30;;;;;;;;;;5260467;28;20374;-82
2023/12/31 13:19:34;;;;;;;3.00;0.30;;;;;;;;;;5261122;28;20096;-74
2023/12/31 13:22:05;;;;;;;1.55;0.30;;;;;;;;;;5260974;28;20079;-80
2023/12/31 13:24:36;;;;;;;3.45;0.30;;;;;;;;;;5260072;28;20036;-82
2023/12/31 13:27:12;;;;;;;3.83;0.50;;;;;;;;;;5260981;28;20016;-82
2023/12/31 13:29:43;;;;;;;3.22;0.75;;;;;;;;;;5260873;28;20053;-81
2023/12/31 13:32:14;;;;;;;2.28;0.40;;;;;;;;;;5260088;28;20017;-82
2023/12/31 13:34:45;;;;;;;1.40;0.30;;;;;;;;;;5260945;28;20472;-81
2023/12/31 13:37:16;;;;;;;3.83;0.30;;;;;;;;;;5260780;28;20036;-81
2023/12/31 13:39:47;;;;;;;3.33;0.40;;;;;;;;;;5260381;28;20027;-80
2023/12/31 13:42:19;;;;;;;2.80;0.22;;;;;;;;;;5261025;28;20017;-82
2023/12/31 13:44:50;;;;;;;1.98;0.28;;;;;;;;;;5259922;28;20113;-82
2023/12/31 13:47:21;;;;;;;2.55;0.32;;;;;;;;;;5260481;28;20491;-82
2023/12/31 13:49:52;;;;;;;5.05;0.40;;;;;;;;;;5261112;28;20036;-81
2023/12/31 13:52:24;;;;;;;1.70;0.20;;;;;;;;;;5259630;28;20044;-82
2023/12/31 13:54:55;;;;;;;1.83;0.30;;;;;;;;;;5262602;28;20079;-82
2023/12/31 13:57:27;;;;;;;3.78;0.30;;;;;;;;;;5264683;28;20013;-81
2023/12/31 13:59:58;;;;;;;4.78;0.38;;;;;;;;;;5263575;28;20021;-80
2023/12/31 14:02:29;;;;;;;3.47;0.60;;;;;;;;;;5265305;28;20031;-81
2023/12/31 14:05:00;;;;;;;2.67;0.30;;;;;;;;;;5264884;28;20063;-80
2023/12/31 14:07:31;;;;;;;4.32;0.50;;;;;;;;;;5263619;28;20013;-80
2023/12/31 14:10:03;;;;;;;3.95;0.50;;;;;;;;;;5264631;28;20025;-81
2023/12/31 14:12:34;;;;;;;2.45;0.40;;;;;;;;;;5263985;28;20029;-81
2023/12/31 14:15:06;;;;;;;3.17;0.40;;;;;;;;;;5264843;28;20020;-81
2023/12/31 14:17:38;;;;;;;4.00;0.30;;;;;;;;;;5264719;28;20070;-81
2023/12/31 14:20:09;;;;;;;3.95;0.50;;;;;;;;;;5263788;28;20029;-81
2023/12/31 14:22:41;;;;;;;4.20;0.40;;;;;;;;;;5264346;28;20017;-80
2023/12/31 14:25:12;;;;;;;2.63;0.40;;;;;;;;;;5264745;28;20021;-80
2023/12/31 14:27:44;;;;;;;6.22;0.70;;;;;;;;;;5263914;28;20371;-80
2023/12/31 14:30:15;;;;;;;7.22;0.55;;;;;;;;;;5264083;28;20057;-81
2023/12/31 14:32:47;;;;;;;3.10;0.45;;;;;;;;;;5264348;28;20063;-80
2023/12/31 14:35:18;;;;;;;6.40;0.60;;;;;;;;;;5263297;28;20017;-80
2023/12/31 14:37:49;;;;;;;5.53;0.57;;;;;;;;;;5263955;28;20035;-80
2023/12/31 14:40:21;;;;;;;3.92;0.50;;;;;;;;;;5248403;28;20090;-81
2023/12/31 14:42:52;;;;;;;3.25;0.47;;;;;;;;;;5252008;28;20029;-78
2023/12/31 14:45:23;;;;;;;6.53;0.90;;;;;;;;;;5256043;28;20479;-80
2023/12/31 14:47:54;;;;;;;4.43;0.63;;;;;;;;;;5263466;28;20383;-80
2023/12/31 14:50:25;;;;;;;6.53;1.08;;;;;;;;;;5263656;28;20028;-78
2023/12/31 14:52:57;;;;;;;7.22;0.80;;;;;;;;;;5264080;28;20067;-80
2023/12/31 14:55:28;;;;;;;6.50;1.30;;;;;;;;;;5263250;28;20130;-79
2023/12/31 14:57:59;;;;;;;4.30;0.70;;;;;;;;;;5263896;28;20021;-78
2023/12/31 15:00:31;;;;;;;4.07;0.70;;;;;;;;;;5256852;28;20107;-79
2023/12/31 15:03:02;;;;;;;7.35;0.88;;;;;;;;;;5261921;28;20459;-81
2023/12/31 15:05:34;;;;;;;8.27;0.90;;;;;;;;;;5262258;28;20075;-81
2023/12/31 15:08:07;;;;;;;7.90;0.85;;;;;;;;;;5262246;28;20487;-80
2023/12/31 15:10:39;;;;;;;6.72;1.10;;;;;;;;;;5261772;28;20029;-80